Sandisfield, Massachusetts
Current Conditions -  °F | °C
As of 11:40 PM on Wednesday 26 Nov 2014 (Local Time) from KBAF Reporting Station
Light Snow Light Snow  
Wind Chill: 25°   Ceiling: 2200
Heat Index: 34°   Visibility: 2mi
Dew Point: 31°   Wind: 12mph
Humidity: 89%   Direction: 350°N
Pressure: 29.77"   Gusts: NA
Location:  42.11°N, 73.14°W
Report Text: KBAF 270440Z 35010KT 2SM -SN BR OVC022 01/M01 A2977 RMK AO2 P0000 T00111006
Loading
Personal Weather Stations






























Interactive Weather Map New forecast layout! Learn more

10-Day Weather Forecast

Advertisements
Track Severe Weather on mobile